sensor_id;sensor_type;location;lat;lon;timestamp;P1;durP1;ratioP1;P2;durP2;ratioP2
18443;SDS011;9350;53.176;8.194;2023-05-27T00:00:23;9.07;;;3.20;;
18443;SDS011;9350;53.176;8.194;2023-05-27T00:02:49;12.57;;;3.33;;
18443;SDS011;9350;53.176;8.194;2023-05-27T00:05:16;13.15;;;3.00;;
18443;SDS011;9350;53.176;8.194;2023-05-27T00:07:43;8.30;;;2.70;;
18443;SDS011;9350;53.176;8.194;2023-05-27T00:10:10;9.77;;;2.88;;
18443;SDS011;9350;53.176;8.194;2023-05-27T00:12:36;8.77;;;3.03;;
18443;SDS011;9350;53.176;8.194;2023-05-27T00:15:05;12.93;;;2.92;;
18443;SDS011;9350;53.176;8.194;2023-05-27T00:20:03;11.60;;;2.95;;
18443;SDS011;9350;53.176;8.194;2023-05-27T00:22:33;16.45;;;3.60;;
18443;SDS011;9350;53.176;8.194;2023-05-27T00:25:01;15.93;;;3.85;;
18443;SDS011;9350;53.176;8.194;2023-05-27T00:27:28;14.10;;;3.47;;
18443;SDS011;9350;53.176;8.194;2023-05-27T00:29:55;14.13;;;3.17;;
18443;SDS011;9350;53.176;8.194;2023-05-27T00:32:23;13.00;;;3.50;;
18443;SDS011;9350;53.176;8.194;2023-05-27T00:34:50;12.52;;;3.55;;
18443;SDS011;9350;53.176;8.194;2023-05-27T00:37:16;11.23;;;3.63;;
18443;SDS011;9350;53.176;8.194;2023-05-27T00:39:43;11.77;;;3.90;;
18443;SDS011;9350;53.176;8.194;2023-05-27T00:42:10;10.15;;;3.10;;
18443;SDS011;9350;53.176;8.194;2023-05-27T00:44:37;8.30;;;3.30;;
18443;SDS011;9350;53.176;8.194;2023-05-27T00:47:04;10.48;;;3.05;;
18443;SDS011;9350;53.176;8.194;2023-05-27T00:49:33;14.52;;;3.70;;
18443;SDS011;9350;53.176;8.194;2023-05-27T00:52:00;7.60;;;3.20;;
18443;SDS011;9350;53.176;8.194;2023-05-27T00:54:27;12.13;;;3.20;;
18443;SDS011;9350;53.176;8.194;2023-05-27T00:56:56;8.27;;;3.20;;
18443;SDS011;9350;53.176;8.194;2023-05-27T00:59:23;13.80;;;3.22;;
18443;SDS011;9350;53.176;8.194;2023-05-27T01:01:50;9.75;;;3.40;;
18443;SDS011;9350;53.176;8.194;2023-05-27T01:04:17;9.93;;;3.35;;
18443;SDS011;9350;53.176;8.194;2023-05-27T01:06:48;15.70;;;3.78;;
18443;SDS011;9350;53.176;8.194;2023-05-27T01:09:25;12.25;;;3.40;;
18443;SDS011;9350;53.176;8.194;2023-05-27T01:11:59;9.77;;;3.17;;
18443;SDS011;9350;53.176;8.194;2023-05-27T01:14:32;12.02;;;3.15;;
18443;SDS011;9350;53.176;8.194;2023-05-27T01:17:01;6.82;;;2.90;;
18443;SDS011;9350;53.176;8.194;2023-05-27T01:19:33;7.85;;;3.00;;
18443;SDS011;9350;53.176;8.194;2023-05-27T01:22:02;13.73;;;3.33;;
18443;SDS011;9350;53.176;8.194;2023-05-27T01:24:31;13.82;;;4.10;;
18443;SDS011;9350;53.176;8.194;2023-05-27T01:26:59;10.50;;;3.05;;
18443;SDS011;9350;53.176;8.194;2023-05-27T01:29:27;11.02;;;2.85;;
18443;SDS011;9350;53.176;8.194;2023-05-27T01:31:55;7.70;;;3.08;;
18443;SDS011;9350;53.176;8.194;2023-05-27T01:34:28;8.20;;;2.85;;
18443;SDS011;9350;53.176;8.194;2023-05-27T01:37:00;8.35;;;3.33;;
18443;SDS011;9350;53.176;8.194;2023-05-27T01:39:32;11.98;;;3.28;;
18443;SDS011;9350;53.176;8.194;2023-05-27T01:42:00;14.73;;;3.15;;
18443;SDS011;9350;53.176;8.194;2023-05-27T01:44:28;10.13;;;2.83;;
18443;SDS011;9350;53.176;8.194;2023-05-27T01:46:57;8.18;;;3.22;;
18443;SDS011;9350;53.176;8.194;2023-05-27T01:49:25;9.13;;;3.00;;
18443;SDS011;9350;53.176;8.194;2023-05-27T01:51:51;11.05;;;3.13;;
18443;SDS011;9350;53.176;8.194;2023-05-27T01:54:18;7.63;;;2.90;;
18443;SDS011;9350;53.176;8.194;2023-05-27T01:56:47;11.07;;;2.88;;
18443;SDS011;9350;53.176;8.194;2023-05-27T01:59:13;10.93;;;3.13;;
18443;SDS011;9350;53.176;8.194;2023-05-27T02:01:40;12.82;;;2.95;;
18443;SDS011;9350;53.176;8.194;2023-05-27T02:04:07;10.95;;;2.97;;
18443;SDS011;9350;53.176;8.194;2023-05-27T02:06:33;10.18;;;3.15;;
18443;SDS011;9350;53.176;8.194;2023-05-27T02:09:01;6.32;;;2.95;;
18443;SDS011;9350;53.176;8.194;2023-05-27T02:11:28;11.70;;;3.13;;
18443;SDS011;9350;53.176;8.194;2023-05-27T02:13:56;8.63;;;3.05;;
18443;SDS011;9350;53.176;8.194;2023-05-27T02:16:24;11.75;;;3.00;;
18443;SDS011;9350;53.176;8.194;2023-05-27T02:18:51;7.68;;;2.90;;
18443;SDS011;9350;53.176;8.194;2023-05-27T02:21:17;11.80;;;2.80;;
18443;SDS011;9350;53.176;8.194;2023-05-27T02:23:44;12.70;;;3.28;;
18443;SDS011;9350;53.176;8.194;2023-05-27T02:26:11;9.23;;;2.75;;
18443;SDS011;9350;53.176;8.194;2023-05-27T02:28:37;6.80;;;2.63;;
18443;SDS011;9350;53.176;8.194;2023-05-27T02:31:05;8.18;;;3.10;;
18443;SDS011;9350;53.176;8.194;2023-05-27T02:33:32;10.38;;;2.92;;
18443;SDS011;9350;53.176;8.194;2023-05-27T02:35:59;8.20;;;2.85;;
18443;SDS011;9350;53.176;8.194;2023-05-27T02:38:26;8.00;;;3.03;;
18443;SDS011;9350;53.176;8.194;2023-05-27T02:40:52;10.15;;;2.60;;
18443;SDS011;9350;53.176;8.194;2023-05-27T02:43:19;8.73;;;2.60;;
18443;SDS011;9350;53.176;8.194;2023-05-27T02:45:46;10.98;;;3.20;;
18443;SDS011;9350;53.176;8.194;2023-05-27T02:48:14;10.23;;;2.75;;
18443;SDS011;9350;53.176;8.194;2023-05-27T02:50:41;13.00;;;2.83;;
18443;SDS011;9350;53.176;8.194;2023-05-27T02:53:07;10.10;;;2.92;;
18443;SDS011;9350;53.176;8.194;2023-05-27T02:55:35;7.43;;;3.22;;
18443;SDS011;9350;53.176;8.194;2023-05-27T02:58:02;8.90;;;2.67;;
18443;SDS011;9350;53.176;8.194;2023-05-27T03:00:29;11.88;;;2.85;;
18443;SDS011;9350;53.176;8.194;2023-05-27T03:02:56;6.18;;;2.65;;
18443;SDS011;9350;53.176;8.194;2023-05-27T03:05:24;9.10;;;3.33;;
18443;SDS011;9350;53.176;8.194;2023-05-27T03:07:51;14.25;;;3.03;;
18443;SDS011;9350;53.176;8.194;2023-05-27T03:10:18;10.13;;;2.80;;
18443;SDS011;9350;53.176;8.194;2023-05-27T03:12:44;11.73;;;2.85;;
18443;SDS011;9350;53.176;8.194;2023-05-27T03:15:11;9.30;;;2.97;;
18443;SDS011;9350;53.176;8.194;2023-05-27T03:17:38;11.27;;;2.88;;
18443;SDS011;9350;53.176;8.194;2023-05-27T03:20:05;11.63;;;3.25;;
18443;SDS011;9350;53.176;8.194;2023-05-27T03:22:34;10.48;;;2.50;;
18443;SDS011;9350;53.176;8.194;2023-05-27T03:25:02;11.27;;;2.67;;
18443;SDS011;9350;53.176;8.194;2023-05-27T03:27:29;11.55;;;2.88;;
18443;SDS011;9350;53.176;8.194;2023-05-27T03:29:56;8.13;;;2.92;;
18443;SDS011;9350;53.176;8.194;2023-05-27T03:32:22;10.95;;;3.00;;
18443;SDS011;9350;53.176;8.194;2023-05-27T03:34:50;8.30;;;2.50;;
18443;SDS011;9350;53.176;8.194;2023-05-27T03:37:16;12.05;;;2.72;;
18443;SDS011;9350;53.176;8.194;2023-05-27T03:39:44;11.10;;;2.85;;
18443;SDS011;9350;53.176;8.194;2023-05-27T03:42:11;13.68;;;3.60;;
18443;SDS011;9350;53.176;8.194;2023-05-27T03:44:38;8.93;;;3.08;;
18443;SDS011;9350;53.176;8.194;2023-05-27T03:47:05;14.38;;;2.88;;
18443;SDS011;9350;53.176;8.194;2023-05-27T03:49:32;9.15;;;2.72;;
18443;SDS011;9350;53.176;8.194;2023-05-27T03:51:58;10.32;;;3.15;;
18443;SDS011;9350;53.176;8.194;2023-05-27T03:54:25;13.98;;;3.20;;
18443;SDS011;9350;53.176;8.194;2023-05-27T03:56:53;10.25;;;2.92;;
18443;SDS011;9350;53.176;8.194;2023-05-27T03:59:20;9.05;;;3.03;;
18443;SDS011;9350;53.176;8.194;2023-05-27T04:01:47;13.07;;;3.10;;
18443;SDS011;9350;53.176;8.194;2023-05-27T04:04:13;11.38;;;3.10;;
18443;SDS011;9350;53.176;8.194;2023-05-27T04:06:40;11.20;;;2.88;;
18443;SDS011;9350;53.176;8.194;2023-05-27T04:09:08;9.18;;;3.08;;
18443;SDS011;9350;53.176;8.194;2023-05-27T04:11:34;10.82;;;3.08;;
18443;SDS011;9350;53.176;8.194;2023-05-27T04:14:02;9.15;;;2.90;;
18443;SDS011;9350;53.176;8.194;2023-05-27T04:16:31;16.20;;;3.88;;
18443;SDS011;9350;53.176;8.194;2023-05-27T04:18:58;9.18;;;3.40;;
18443;SDS011;9350;53.176;8.194;2023-05-27T04:21:25;13.25;;;3.50;;
18443;SDS011;9350;53.176;8.194;2023-05-27T04:23:52;11.55;;;3.28;;
18443;SDS011;9350;53.176;8.194;2023-05-27T04:26:19;11.65;;;3.70;;
18443;SDS011;9350;53.176;8.194;2023-05-27T04:28:46;9.90;;;3.47;;
18443;SDS011;9350;53.176;8.194;2023-05-27T04:31:14;10.50;;;3.53;;
18443;SDS011;9350;53.176;8.194;2023-05-27T04:33:41;13.57;;;4.32;;
18443;SDS011;9350;53.176;8.194;2023-05-27T04:36:08;14.57;;;4.07;;
18443;SDS011;9350;53.176;8.194;2023-05-27T04:38:35;19.85;;;3.95;;
18443;SDS011;9350;53.176;8.194;2023-05-27T04:41:01;19.05;;;4.25;;
18443;SDS011;9350;53.176;8.194;2023-05-27T04:43:29;10.52;;;3.58;;
18443;SDS011;9350;53.176;8.194;2023-05-27T04:45:56;13.20;;;3.95;;
18443;SDS011;9350;53.176;8.194;2023-05-27T04:48:25;11.88;;;3.90;;
18443;SDS011;9350;53.176;8.194;2023-05-27T04:50:53;18.08;;;4.45;;
18443;SDS011;9350;53.176;8.194;2023-05-27T04:53:20;16.08;;;3.70;;
18443;SDS011;9350;53.176;8.194;2023-05-27T04:55:46;14.95;;;4.15;;
18443;SDS011;9350;53.176;8.194;2023-05-27T04:58:14;20.15;;;5.40;;
18443;SDS011;9350;53.176;8.194;2023-05-27T05:00:40;26.83;;;4.18;;
18443;SDS011;9350;53.176;8.194;2023-05-27T05:03:15;15.98;;;4.32;;
18443;SDS011;9350;53.176;8.194;2023-05-27T05:05:47;21.67;;;4.90;;
18443;SDS011;9350;53.176;8.194;2023-05-27T05:08:15;20.13;;;4.20;;
18443;SDS011;9350;53.176;8.194;2023-05-27T05:10:41;17.63;;;4.68;;
18443;SDS011;9350;53.176;8.194;2023-05-27T05:13:08;15.88;;;3.95;;
18443;SDS011;9350;53.176;8.194;2023-05-27T05:15:35;19.40;;;3.70;;
18443;SDS011;9350;53.176;8.194;2023-05-27T05:18:02;17.08;;;4.00;;
18443;SDS011;9350;53.176;8.194;2023-05-27T05:20:29;24.15;;;4.10;;
18443;SDS011;9350;53.176;8.194;2023-05-27T05:22:58;17.75;;;3.88;;
18443;SDS011;9350;53.176;8.194;2023-05-27T05:25:25;18.17;;;3.90;;
18443;SDS011;9350;53.176;8.194;2023-05-27T05:27:51;20.77;;;4.00;;
18443;SDS011;9350;53.176;8.194;2023-05-27T05:30:18;18.17;;;4.10;;
18443;SDS011;9350;53.176;8.194;2023-05-27T05:32:45;19.45;;;5.65;;
18443;SDS011;9350;53.176;8.194;2023-05-27T05:35:12;18.25;;;4.18;;
18443;SDS011;9350;53.176;8.194;2023-05-27T05:37:38;18.42;;;3.88;;
18443;SDS011;9350;53.176;8.194;2023-05-27T05:40:07;23.25;;;4.30;;
18443;SDS011;9350;53.176;8.194;2023-05-27T05:42:35;19.00;;;4.35;;
18443;SDS011;9350;53.176;8.194;2023-05-27T05:45:03;18.38;;;3.78;;
18443;SDS011;9350;53.176;8.194;2023-05-27T05:47:31;20.83;;;4.13;;
18443;SDS011;9350;53.176;8.194;2023-05-27T05:49:58;17.08;;;4.00;;
18443;SDS011;9350;53.176;8.194;2023-05-27T05:52:25;18.92;;;3.95;;
18443;SDS011;9350;53.176;8.194;2023-05-27T05:54:51;26.27;;;4.50;;
18443;SDS011;9350;53.176;8.194;2023-05-27T05:57:20;19.80;;;3.80;;
18443;SDS011;9350;53.176;8.194;2023-05-27T05:59:46;18.85;;;4.55;;
18443;SDS011;9350;53.176;8.194;2023-05-27T06:02:13;19.48;;;4.30;;
18443;SDS011;9350;53.176;8.194;2023-05-27T06:04:40;19.58;;;4.20;;
18443;SDS011;9350;53.176;8.194;2023-05-27T06:07:06;18.80;;;3.45;;
18443;SDS011;9350;53.176;8.194;2023-05-27T06:09:33;17.20;;;3.90;;
18443;SDS011;9350;53.176;8.194;2023-05-27T06:12:00;16.38;;;3.78;;
18443;SDS011;9350;53.176;8.194;2023-05-27T06:14:28;21.38;;;4.38;;
18443;SDS011;9350;53.176;8.194;2023-05-27T06:16:54;21.67;;;4.18;;
18443;SDS011;9350;53.176;8.194;2023-05-27T06:19:21;19.38;;;4.43;;
18443;SDS011;9350;53.176;8.194;2023-05-27T06:21:48;15.40;;;3.78;;
18443;SDS011;9350;53.176;8.194;2023-05-27T06:24:14;16.65;;;4.10;;
18443;SDS011;9350;53.176;8.194;2023-05-27T06:26:41;14.88;;;4.13;;
18443;SDS011;9350;53.176;8.194;2023-05-27T06:29:08;21.58;;;4.03;;
18443;SDS011;9350;53.176;8.194;2023-05-27T06:31:36;16.45;;;4.07;;
18443;SDS011;9350;53.176;8.194;2023-05-27T06:34:03;20.50;;;4.22;;
18443;SDS011;9350;53.176;8.194;2023-05-27T06:36:30;18.50;;;4.43;;
18443;SDS011;9350;53.176;8.194;2023-05-27T06:38:57;15.52;;;3.85;;
18443;SDS011;9350;53.176;8.194;2023-05-27T06:41:24;15.00;;;4.07;;
18443;SDS011;9350;53.176;8.194;2023-05-27T06:43:51;14.85;;;4.45;;
18443;SDS011;9350;53.176;8.194;2023-05-27T06:46:18;11.27;;;3.80;;
18443;SDS011;9350;53.176;8.194;2023-05-27T06:48:46;18.67;;;4.20;;
18443;SDS011;9350;53.176;8.194;2023-05-27T06:51:13;18.13;;;4.00;;
18443;SDS011;9350;53.176;8.194;2023-05-27T06:53:40;22.00;;;4.85;;
18443;SDS011;9350;53.176;8.194;2023-05-27T06:56:07;17.98;;;3.80;;
18443;SDS011;9350;53.176;8.194;2023-05-27T06:58:34;15.20;;;4.00;;
18443;SDS011;9350;53.176;8.194;2023-05-27T07:01:01;15.40;;;3.80;;
18443;SDS011;9350;53.176;8.194;2023-05-27T07:03:27;18.92;;;5.15;;
18443;SDS011;9350;53.176;8.194;2023-05-27T07:05:55;13.05;;;4.13;;
18443;SDS011;9350;53.176;8.194;2023-05-27T07:08:22;11.88;;;3.88;;
18443;SDS011;9350;53.176;8.194;2023-05-27T07:10:49;17.83;;;4.80;;
18443;SDS011;9350;53.176;8.194;2023-05-27T07:13:15;15.20;;;4.25;;
18443;SDS011;9350;53.176;8.194;2023-05-27T07:15:42;20.25;;;4.30;;
18443;SDS011;9350;53.176;8.194;2023-05-27T07:18:09;21.90;;;4.43;;
18443;SDS011;9350;53.176;8.194;2023-05-27T07:20:36;17.77;;;4.63;;
18443;SDS011;9350;53.176;8.194;2023-05-27T07:23:06;14.30;;;4.50;;
18443;SDS011;9350;53.176;8.194;2023-05-27T07:25:32;15.57;;;4.32;;
18443;SDS011;9350;53.176;8.194;2023-05-27T07:27:59;18.40;;;4.00;;
18443;SDS011;9350;53.176;8.194;2023-05-27T07:30:26;20.70;;;4.05;;
18443;SDS011;9350;53.176;8.194;2023-05-27T07:32:53;15.75;;;4.47;;
18443;SDS011;9350;53.176;8.194;2023-05-27T07:35:20;14.93;;;4.18;;
18443;SDS011;9350;53.176;8.194;2023-05-27T07:37:47;20.73;;;5.18;;
18443;SDS011;9350;53.176;8.194;2023-05-27T07:40:15;14.50;;;3.67;;
18443;SDS011;9350;53.176;8.194;2023-05-27T07:42:42;23.13;;;4.57;;
18443;SDS011;9350;53.176;8.194;2023-05-27T07:45:09;17.33;;;4.53;;
18443;SDS011;9350;53.176;8.194;2023-05-27T07:47:36;17.35;;;4.97;;
18443;SDS011;9350;53.176;8.194;2023-05-27T07:50:03;18.63;;;4.15;;
18443;SDS011;9350;53.176;8.194;2023-05-27T07:52:30;25.55;;;4.80;;
18443;SDS011;9350;53.176;8.194;2023-05-27T07:54:56;17.50;;;5.30;;
18443;SDS011;9350;53.176;8.194;2023-05-27T07:57:24;15.15;;;4.30;;
18443;SDS011;9350;53.176;8.194;2023-05-27T07:59:51;24.35;;;5.05;;
18443;SDS011;9350;53.176;8.194;2023-05-27T08:02:18;19.60;;;4.30;;
18443;SDS011;9350;53.176;8.194;2023-05-27T08:04:46;24.20;;;4.80;;
18443;SDS011;9350;53.176;8.194;2023-05-27T08:07:13;17.63;;;4.72;;
18443;SDS011;9350;53.176;8.194;2023-05-27T08:09:40;20.77;;;4.55;;
18443;SDS011;9350;53.176;8.194;2023-05-27T08:12:07;19.33;;;5.00;;
18443;SDS011;9350;53.176;8.194;2023-05-27T08:14:35;16.58;;;4.57;;
18443;SDS011;9350;53.176;8.194;2023-05-27T08:17:02;26.73;;;4.65;;
18443;SDS011;9350;53.176;8.194;2023-05-27T08:19:28;19.52;;;5.35;;
18443;SDS011;9350;53.176;8.194;2023-05-27T08:21:55;19.42;;;4.63;;
18443;SDS011;9350;53.176;8.194;2023-05-27T08:24:22;17.58;;;4.75;;
18443;SDS011;9350;53.176;8.194;2023-05-27T08:26:49;21.17;;;4.30;;
18443;SDS011;9350;53.176;8.194;2023-05-27T08:29:16;26.08;;;5.20;;
18443;SDS011;9350;53.176;8.194;2023-05-27T08:31:44;16.98;;;4.90;;
18443;SDS011;9350;53.176;8.194;2023-05-27T08:34:10;19.30;;;4.80;;
18443;SDS011;9350;53.176;8.194;2023-05-27T08:36:37;15.95;;;4.10;;
18443;SDS011;9350;53.176;8.194;2023-05-27T08:39:04;22.83;;;4.95;;
18443;SDS011;9350;53.176;8.194;2023-05-27T08:41:31;14.70;;;4.78;;
18443;SDS011;9350;53.176;8.194;2023-05-27T08:43:58;15.98;;;5.10;;
18443;SDS011;9350;53.176;8.194;2023-05-27T08:46:26;21.17;;;5.13;;
18443;SDS011;9350;53.176;8.194;2023-05-27T08:48:54;22.60;;;4.75;;
18443;SDS011;9350;53.176;8.194;2023-05-27T08:51:21;14.82;;;4.47;;
18443;SDS011;9350;53.176;8.194;2023-05-27T08:53:49;16.60;;;4.85;;
18443;SDS011;9350;53.176;8.194;2023-05-27T08:56:17;17.85;;;4.85;;
18443;SDS011;9350;53.176;8.194;2023-05-27T08:58:46;18.10;;;5.07;;
18443;SDS011;9350;53.176;8.194;2023-05-27T09:01:15;17.60;;;5.07;;
18443;SDS011;9350;53.176;8.194;2023-05-27T09:03:42;16.23;;;4.68;;
18443;SDS011;9350;53.176;8.194;2023-05-27T09:06:11;17.67;;;4.70;;
18443;SDS011;9350;53.176;8.194;2023-05-27T09:08:38;18.55;;;4.82;;
18443;SDS011;9350;53.176;8.194;2023-05-27T09:11:04;18.90;;;4.85;;
18443;SDS011;9350;53.176;8.194;2023-05-27T09:13:32;20.52;;;5.38;;
18443;SDS011;9350;53.176;8.194;2023-05-27T09:15:59;21.83;;;5.35;;
18443;SDS011;9350;53.176;8.194;2023-05-27T09:18:26;15.95;;;4.78;;
18443;SDS011;9350;53.176;8.194;2023-05-27T09:20:54;18.58;;;5.18;;
18443;SDS011;9350;53.176;8.194;2023-05-27T09:23:23;27.08;;;5.38;;
18443;SDS011;9350;53.176;8.194;2023-05-27T09:25:50;14.35;;;5.25;;
18443;SDS011;9350;53.176;8.194;2023-05-27T09:28:20;20.02;;;5.35;;
18443;SDS011;9350;53.176;8.194;2023-05-27T09:30:50;20.92;;;5.38;;
18443;SDS011;9350;53.176;8.194;2023-05-27T09:33:22;16.23;;;6.10;;
18443;SDS011;9350;53.176;8.194;2023-05-27T09:35:49;21.67;;;5.10;;
18443;SDS011;9350;53.176;8.194;2023-05-27T09:38:16;24.88;;;6.28;;
18443;SDS011;9350;53.176;8.194;2023-05-27T09:40:44;16.63;;;4.95;;
18443;SDS011;9350;53.176;8.194;2023-05-27T09:43:12;17.85;;;4.97;;
18443;SDS011;9350;53.176;8.194;2023-05-27T09:45:40;18.55;;;5.03;;
18443;SDS011;9350;53.176;8.194;2023-05-27T09:48:08;18.40;;;5.65;;
18443;SDS011;9350;53.176;8.194;2023-05-27T09:50:38;20.88;;;5.65;;
18443;SDS011;9350;53.176;8.194;2023-05-27T09:53:06;18.80;;;5.15;;
18443;SDS011;9350;53.176;8.194;2023-05-27T09:55:33;19.85;;;5.07;;
18443;SDS011;9350;53.176;8.194;2023-05-27T09:58:01;14.30;;;5.00;;
18443;SDS011;9350;53.176;8.194;2023-05-27T10:00:28;18.75;;;5.30;;
18443;SDS011;9350;53.176;8.194;2023-05-27T10:02:57;20.58;;;5.63;;
18443;SDS011;9350;53.176;8.194;2023-05-27T10:05:26;18.05;;;5.57;;
18443;SDS011;9350;53.176;8.194;2023-05-27T10:07:55;18.90;;;5.57;;
18443;SDS011;9350;53.176;8.194;2023-05-27T10:10:21;14.75;;;4.60;;
18443;SDS011;9350;53.176;8.194;2023-05-27T10:12:49;18.55;;;5.00;;
18443;SDS011;9350;53.176;8.194;2023-05-27T10:15:23;17.77;;;5.10;;
18443;SDS011;9350;53.176;8.194;2023-05-27T10:17:52;18.23;;;5.40;;
18443;SDS011;9350;53.176;8.194;2023-05-27T10:20:24;15.82;;;4.72;;
18443;SDS011;9350;53.176;8.194;2023-05-27T10:22:54;14.45;;;4.85;;
18443;SDS011;9350;53.176;8.194;2023-05-27T10:25:22;17.48;;;4.95;;
18443;SDS011;9350;53.176;8.194;2023-05-27T10:28:00;17.73;;;4.68;;
18443;SDS011;9350;53.176;8.194;2023-05-27T10:30:28;15.38;;;5.28;;
18443;SDS011;9350;53.176;8.194;2023-05-27T10:32:55;21.13;;;5.55;;
18443;SDS011;9350;53.176;8.194;2023-05-27T10:35:25;19.27;;;5.10;;
18443;SDS011;9350;53.176;8.194;2023-05-27T10:37:52;19.40;;;5.03;;
18443;SDS011;9350;53.176;8.194;2023-05-27T10:40:23;15.30;;;4.97;;
18443;SDS011;9350;53.176;8.194;2023-05-27T10:42:57;16.13;;;4.88;;
18443;SDS011;9350;53.176;8.194;2023-05-27T10:45:32;15.75;;;4.97;;
18443;SDS011;9350;53.176;8.194;2023-05-27T10:47:59;17.38;;;4.70;;
18443;SDS011;9350;53.176;8.194;2023-05-27T10:50:29;16.90;;;4.85;;
18443;SDS011;9350;53.176;8.194;2023-05-27T10:52:58;17.45;;;4.93;;
18443;SDS011;9350;53.176;8.194;2023-05-27T10:55:26;23.42;;;5.07;;
18443;SDS011;9350;53.176;8.194;2023-05-27T10:57:53;16.48;;;5.07;;
18443;SDS011;9350;53.176;8.194;2023-05-27T11:00:20;19.75;;;5.30;;
18443;SDS011;9350;53.176;8.194;2023-05-27T11:02:51;20.50;;;5.20;;
18443;SDS011;9350;53.176;8.194;2023-05-27T11:05:19;14.05;;;4.60;;
18443;SDS011;9350;53.176;8.194;2023-05-27T11:07:46;15.60;;;5.85;;
18443;SDS011;9350;53.176;8.194;2023-05-27T11:10:13;15.40;;;5.03;;
18443;SDS011;9350;53.176;8.194;2023-05-27T11:12:43;18.10;;;5.30;;
18443;SDS011;9350;53.176;8.194;2023-05-27T11:15:11;18.02;;;5.80;;
18443;SDS011;9350;53.176;8.194;2023-05-27T11:17:37;13.77;;;5.20;;
18443;SDS011;9350;53.176;8.194;2023-05-27T11:20:06;14.02;;;4.70;;
18443;SDS011;9350;53.176;8.194;2023-05-27T11:22:33;18.48;;;5.72;;
18443;SDS011;9350;53.176;8.194;2023-05-27T11:25:02;14.15;;;5.50;;
18443;SDS011;9350;53.176;8.194;2023-05-27T11:27:34;15.48;;;5.15;;
18443;SDS011;9350;53.176;8.194;2023-05-27T11:30:05;15.68;;;5.10;;
18443;SDS011;9350;53.176;8.194;2023-05-27T11:32:34;13.38;;;5.10;;
18443;SDS011;9350;53.176;8.194;2023-05-27T11:35:02;12.27;;;5.03;;
18443;SDS011;9350;53.176;8.194;2023-05-27T11:37:32;12.10;;;4.88;;
18443;SDS011;9350;53.176;8.194;2023-05-27T11:40:00;12.63;;;5.00;;
18443;SDS011;9350;53.176;8.194;2023-05-27T11:42:28;14.35;;;5.30;;
18443;SDS011;9350;53.176;8.194;2023-05-27T11:44:55;13.52;;;4.97;;
18443;SDS011;9350;53.176;8.194;2023-05-27T11:47:24;14.82;;;5.60;;
18443;SDS011;9350;53.176;8.194;2023-05-27T11:49:51;12.70;;;5.50;;
18443;SDS011;9350;53.176;8.194;2023-05-27T11:52:18;14.18;;;5.68;;
18443;SDS011;9350;53.176;8.194;2023-05-27T11:54:49;18.00;;;6.18;;
18443;SDS011;9350;53.176;8.194;2023-05-27T11:57:17;16.83;;;5.80;;
18443;SDS011;9350;53.176;8.194;2023-05-27T11:59:43;18.00;;;5.65;;
18443;SDS011;9350;53.176;8.194;2023-05-27T12:02:10;13.60;;;5.45;;
18443;SDS011;9350;53.176;8.194;2023-05-27T12:04:37;14.40;;;5.38;;
18443;SDS011;9350;53.176;8.194;2023-05-27T12:07:04;16.90;;;5.72;;
18443;SDS011;9350;53.176;8.194;2023-05-27T12:09:31;15.27;;;5.78;;
18443;SDS011;9350;53.176;8.194;2023-05-27T12:11:59;16.90;;;5.75;;
18443;SDS011;9350;53.176;8.194;2023-05-27T12:14:26;19.10;;;5.65;;
18443;SDS011;9350;53.176;8.194;2023-05-27T12:16:53;21.40;;;6.47;;
18443;SDS011;9350;53.176;8.194;2023-05-27T12:19:20;16.15;;;6.15;;
18443;SDS011;9350;53.176;8.194;2023-05-27T12:21:46;15.27;;;5.93;;
18443;SDS011;9350;53.176;8.194;2023-05-27T12:24:13;15.88;;;6.18;;
18443;SDS011;9350;53.176;8.194;2023-05-27T12:26:40;18.38;;;6.22;;
18443;SDS011;9350;53.176;8.194;2023-05-27T12:29:08;12.77;;;6.03;;
18443;SDS011;9350;53.176;8.194;2023-05-27T12:31:35;14.77;;;5.78;;
18443;SDS011;9350;53.176;8.194;2023-05-27T12:34:01;17.08;;;5.97;;
18443;SDS011;9350;53.176;8.194;2023-05-27T12:36:28;19.17;;;5.70;;
18443;SDS011;9350;53.176;8.194;2023-05-27T12:38:55;17.88;;;6.55;;
18443;SDS011;9350;53.176;8.194;2023-05-27T12:41:21;16.48;;;6.53;;
18443;SDS011;9350;53.176;8.194;2023-05-27T12:43:48;16.65;;;6.05;;
18443;SDS011;9350;53.176;8.194;2023-05-27T12:46:16;19.38;;;6.00;;
18443;SDS011;9350;53.176;8.194;2023-05-27T12:48:43;15.52;;;5.90;;
18443;SDS011;9350;53.176;8.194;2023-05-27T12:51:10;20.10;;;5.95;;
18443;SDS011;9350;53.176;8.194;2023-05-27T12:53:37;13.93;;;5.88;;
18443;SDS011;9350;53.176;8.194;2023-05-27T12:56:04;15.10;;;5.90;;
18443;SDS011;9350;53.176;8.194;2023-05-27T12:58:31;15.77;;;6.30;;
18443;SDS011;9350;53.176;8.194;2023-05-27T13:00:58;17.85;;;5.57;;
18443;SDS011;9350;53.176;8.194;2023-05-27T13:03:26;15.00;;;5.28;;
18443;SDS011;9350;53.176;8.194;2023-05-27T13:05:52;16.48;;;5.50;;
18443;SDS011;9350;53.176;8.194;2023-05-27T13:08:19;12.68;;;5.45;;
18443;SDS011;9350;53.176;8.194;2023-05-27T13:10:46;15.13;;;5.72;;
18443;SDS011;9350;53.176;8.194;2023-05-27T13:13:12;21.50;;;7.57;;
18443;SDS011;9350;53.176;8.194;2023-05-27T13:15:39;18.33;;;6.60;;
18443;SDS011;9350;53.176;8.194;2023-05-27T13:18:06;18.25;;;7.18;;
18443;SDS011;9350;53.176;8.194;2023-05-27T13:20:36;22.40;;;7.20;;
18443;SDS011;9350;53.176;8.194;2023-05-27T13:23:03;16.95;;;7.00;;
18443;SDS011;9350;53.176;8.194;2023-05-27T13:25:31;14.18;;;6.20;;
18443;SDS011;9350;53.176;8.194;2023-05-27T13:27:58;17.60;;;6.38;;
18443;SDS011;9350;53.176;8.194;2023-05-27T13:30:25;16.52;;;6.47;;
18443;SDS011;9350;53.176;8.194;2023-05-27T13:32:52;21.45;;;7.35;;
18443;SDS011;9350;53.176;8.194;2023-05-27T13:35:20;22.40;;;7.10;;
18443;SDS011;9350;53.176;8.194;2023-05-27T13:37:48;24.23;;;7.25;;
18443;SDS011;9350;53.176;8.194;2023-05-27T13:40:14;22.90;;;7.03;;
18443;SDS011;9350;53.176;8.194;2023-05-27T13:42:41;18.88;;;7.20;;
18443;SDS011;9350;53.176;8.194;2023-05-27T13:45:08;18.15;;;6.57;;
18443;SDS011;9350;53.176;8.194;2023-05-27T13:47:35;21.45;;;6.60;;
18443;SDS011;9350;53.176;8.194;2023-05-27T13:50:04;16.55;;;6.40;;
18443;SDS011;9350;53.176;8.194;2023-05-27T13:52:31;18.15;;;7.00;;
18443;SDS011;9350;53.176;8.194;2023-05-27T13:54:59;17.55;;;7.00;;
18443;SDS011;9350;53.176;8.194;2023-05-27T13:57:26;19.90;;;7.15;;
18443;SDS011;9350;53.176;8.194;2023-05-27T13:59:53;18.67;;;7.40;;
18443;SDS011;9350;53.176;8.194;2023-05-27T14:02:19;19.20;;;7.28;;
18443;SDS011;9350;53.176;8.194;2023-05-27T14:04:46;14.50;;;5.05;;
18443;SDS011;9350;53.176;8.194;2023-05-27T14:07:13;12.57;;;5.22;;
18443;SDS011;9350;53.176;8.194;2023-05-27T14:09:40;14.80;;;4.85;;
18443;SDS011;9350;53.176;8.194;2023-05-27T14:12:08;16.17;;;5.43;;
18443;SDS011;9350;53.176;8.194;2023-05-27T14:14:35;18.10;;;5.95;;
18443;SDS011;9350;53.176;8.194;2023-05-27T14:17:02;14.75;;;5.82;;
18443;SDS011;9350;53.176;8.194;2023-05-27T14:19:29;11.38;;;5.32;;
18443;SDS011;9350;53.176;8.194;2023-05-27T14:21:56;15.43;;;5.15;;
18443;SDS011;9350;53.176;8.194;2023-05-27T14:24:22;13.15;;;4.97;;
18443;SDS011;9350;53.176;8.194;2023-05-27T14:26:49;12.52;;;4.78;;
18443;SDS011;9350;53.176;8.194;2023-05-27T14:29:17;14.38;;;5.03;;
18443;SDS011;9350;53.176;8.194;2023-05-27T14:31:44;13.05;;;4.90;;
18443;SDS011;9350;53.176;8.194;2023-05-27T14:34:11;11.18;;;4.60;;
18443;SDS011;9350;53.176;8.194;2023-05-27T14:36:37;11.48;;;4.35;;
18443;SDS011;9350;53.176;8.194;2023-05-27T14:39:05;11.55;;;4.57;;
18443;SDS011;9350;53.176;8.194;2023-05-27T14:41:33;11.35;;;4.20;;
18443;SDS011;9350;53.176;8.194;2023-05-27T14:43:59;12.35;;;4.07;;
18443;SDS011;9350;53.176;8.194;2023-05-27T14:46:27;13.43;;;4.90;;
18443;SDS011;9350;53.176;8.194;2023-05-27T14:48:54;10.10;;;4.78;;
18443;SDS011;9350;53.176;8.194;2023-05-27T14:51:21;14.77;;;5.38;;
18443;SDS011;9350;53.176;8.194;2023-05-27T14:53:47;12.32;;;4.85;;